This is the latest recevied weather packets stored in our database for station/object KO4RJX-11. If no packets are shown the sender has not sent any weather packets the latest 10 day(s).
| Time | Temp. | Humidity | Pressure | Rain* | Wind** | Luminosity | Snow |
|---|---|---|---|---|---|---|---|
| 1778008521 | 26.67° C | 35% | 1010.7 hPa | 0 mm | - | - | - |
| 1778007587 | 26.67° C | 36% | 1010.7 hPa | 0 mm | - | - | - |
| 1778005587 | 25.56° C | 37% | 1011.4 hPa | 0 mm | - | - | - |
| 1778003718 | 26.11° C | 38% | 1011.4 hPa | 0 mm | - | - | - |
| 1778003187 | 25.56° C | 39% | 1011.4 hPa | 0 mm | - | - | - |
| 1778002387 | 25.56° C | 39% | 1011.4 hPa | 0 mm | - | - | - |
| 1777999987 | 24.44° C | 44% | 1011.7 hPa | 0 mm | - | - | - |
| 1777999587 | 24.44° C | 43% | 1011.7 hPa | 0 mm | - | - | - |
| 1777997187 | 24.44° C | 47% | 1012.4 hPa | 0 mm | - | - | - |
| 1777995587 | 23.33° C | 49% | 1012.4 hPa | 0 mm | - | - | - |
| 1777994387 | 22.22° C | 51% | 1012.7 hPa | 0 mm | - | - | - |
| 1777993587 | 21.67° C | 54% | 1012.7 hPa | 0 mm | - | - | - |
| 1777987588 | 18.89° C | 64% | 1012.4 hPa | 0 mm | - | - | - |
| 1777985987 | 17.78° C | 66% | 1012.7 hPa | 0 mm | - | - | - |
| 1777985187 | 17.22° C | 68% | 1012.7 hPa | 0 mm | - | - | - |
| 1777978786 | 12.78° C | 81% | 1012 hPa | 0 mm | - | - | - |
| 1777977186 | 12.78° C | 80% | 1011.7 hPa | 0 mm | - | - | - |
| 1777975586 | 12.78° C | 80% | 1011.4 hPa | 0 mm | - | - | - |
| 1777975186 | 12.78° C | 79% | 1011.4 hPa | 0 mm | - | - | - |
| 1777973986 | 12.78° C | 78% | 1011 hPa | 0 mm | - | - | - |
| 1777972386 | 13.33° C | 76% | 1011 hPa | 0 mm | - | - | - |
| 1777970386 | 13.89° C | 74% | 1010.7 hPa | 0 mm | - | - | - |
| 1777968918 | 14.44° C | 71% | 1010.7 hPa | 0 mm | - | - | - |
| 1777963587 | 15.56° C | 66% | 1010.3 hPa | 0 mm | - | - | - |
| 1777962118 | 15.56° C | 64% | 1010.7 hPa | 0 mm | - | - | - |
* Rain since midnight (hover to see other rain measurements)
** Current wind speed in m/s (hover to see current wind gust speed)